Startpagina
METAR-TAF:

METAR-TAF

Vliegvelden :

Thule Air Base

Thule, Groenland

breedte: 76-32N, lengte: 068-42W, hoogte: 77 m

Actueel weer

Dit bericht is 19 minuten geleden gemaakt, om 04:56 UTC
Wind 6 kt uit het oosten
Temperatuur -9°C
Vochtigheid 79%
Druk 1012 hPa
Zicht 10 km of meer
Weinig wolken op 4900 ft
Gebroken wolken op 6000 ft

METAR: BGTL 220456Z AUTO 08006KT 9999 FEW049 BKN060 M09/M12 A2987 RMK AO2 SLP103 T10941116 TSNO $

Tijdstip: 02:15 (05:15 UTC)


TAF: ontbreekt

Waarnemingen en weersverwachtingen van meer dan 4000 vliegvelden (METAR en TAF).

De beschikbare stations zijn de gele en rode punten op de kaart.

Ga met uw muis naar het station om de naam te zien.

Klik dan om waarnemingen en weersverwachtingen te zien.

kaart wijzigen: klik op de groene knoppen met een zwart kruis om in te zoomen, op de groene knop met een streepje om uit te zoomen of op de groene pijlen voor aangrenzende kaarten.


METAR-TAF: